createdAt,value
2023-04-21T00:01:18.528Z,5.89
2023-04-21T00:03:46.702Z,5.89
2023-04-21T00:06:13.831Z,5.89
2023-04-21T00:08:40.926Z,5.76
2023-04-21T00:11:08.087Z,5.72
2023-04-21T00:13:36.071Z,5.76
2023-04-21T00:16:03.633Z,5.82
2023-04-21T00:18:30.763Z,5.80
2023-04-21T00:20:57.809Z,5.87
2023-04-21T00:23:25.239Z,5.77
2023-04-21T00:25:52.459Z,5.81
2023-04-21T00:28:19.517Z,5.85
2023-04-21T00:30:46.630Z,5.84
2023-04-21T00:33:13.636Z,5.78
2023-04-21T00:35:40.779Z,5.77
2023-04-21T00:38:07.843Z,5.81
2023-04-21T00:40:36.379Z,5.75
2023-04-21T00:43:08.105Z,5.69
2023-04-21T00:45:36.047Z,5.69
2023-04-21T00:48:03.280Z,5.74
2023-04-21T00:50:30.495Z,5.74
2023-04-21T00:52:58.972Z,5.78
2023-04-21T00:55:26.189Z,5.79
2023-04-21T00:57:53.611Z,5.73
2023-04-21T01:00:20.855Z,5.76
2023-04-21T01:02:48.386Z,5.73
2023-04-21T01:05:16.669Z,5.73
2023-04-21T01:07:44.080Z,5.70
2023-04-21T01:10:11.303Z,5.72
2023-04-21T01:12:45.565Z,5.72
2023-04-21T01:15:13.610Z,5.70
2023-04-21T01:17:41.742Z,5.71
2023-04-21T01:20:10.837Z,5.71
2023-04-21T01:22:38.781Z,5.71
2023-04-21T01:25:05.955Z,5.70
2023-04-21T01:27:33.190Z,5.70
2023-04-21T01:30:00.449Z,5.66
2023-04-21T01:32:30.287Z,5.55
2023-04-21T01:34:58.615Z,5.40
2023-04-21T01:37:30.420Z,5.46
2023-04-21T01:39:59.279Z,5.51
2023-04-21T01:42:27.987Z,5.56
2023-04-21T01:44:56.317Z,5.56
2023-04-21T01:47:24.176Z,5.53
2023-04-21T01:49:51.954Z,5.57
2023-04-21T01:52:19.237Z,5.49
2023-04-21T01:54:46.508Z,5.28
2023-04-21T01:57:14.988Z,5.12
2023-04-21T01:59:42.268Z,5.05
2023-04-21T02:02:10.061Z,5.02
2023-04-21T02:04:37.482Z,5.03
2023-04-21T02:07:04.670Z,4.84
2023-04-21T02:09:33.219Z,4.82
2023-04-21T02:12:00.468Z,4.79
2023-04-21T02:14:27.775Z,4.73
2023-04-21T02:16:56.169Z,4.85
2023-04-21T02:19:23.939Z,4.78
2023-04-21T02:21:51.109Z,4.75
2023-04-21T02:24:18.292Z,4.75
2023-04-21T02:26:46.389Z,4.74
2023-04-21T02:29:13.671Z,4.62
2023-04-21T02:31:57.312Z,4.58
2023-04-21T02:34:26.380Z,4.56
2023-04-21T02:36:53.479Z,4.59
2023-04-21T02:39:21.056Z,4.62
2023-04-21T02:41:48.349Z,4.67
2023-04-21T02:44:15.439Z,4.75
2023-04-21T02:46:42.978Z,4.73
2023-04-21T02:49:10.651Z,4.81
2023-04-21T02:51:37.827Z,4.81
2023-04-21T03:07:13.039Z,5.00
2023-04-21T03:09:40.666Z,5.01
2023-04-21T03:12:07.898Z,4.95
2023-04-21T03:14:36.609Z,4.92
2023-04-21T03:17:03.836Z,4.85
2023-04-21T03:19:31.971Z,4.83
2023-04-21T03:21:59.096Z,4.75
2023-04-21T03:24:26.812Z,4.72
2023-04-21T03:26:54.093Z,4.68
2023-04-21T03:29:21.480Z,4.70
2023-04-21T03:31:48.972Z,4.73
2023-04-21T03:34:16.484Z,4.66
2023-04-21T03:36:43.745Z,4.67
2023-04-21T03:39:20.493Z,4.74
2023-04-21T03:41:49.498Z,4.64
2023-04-21T03:44:16.659Z,4.72
2023-04-21T03:46:43.801Z,4.73
2023-04-21T03:49:11.130Z,4.50
2023-04-21T03:51:38.234Z,4.56
2023-04-21T03:54:05.451Z,4.57
2023-04-21T03:56:32.568Z,4.37
2023-04-21T03:58:59.664Z,4.22
2023-04-21T04:01:26.862Z,4.16
2023-04-21T04:03:54.132Z,4.30
2023-04-21T04:06:21.442Z,4.41
2023-04-21T04:08:48.518Z,4.30
2023-04-21T04:11:15.719Z,4.50
2023-04-21T04:13:42.965Z,4.17
2023-04-21T04:16:10.232Z,4.30
2023-04-21T04:18:37.385Z,4.53
2023-04-21T04:21:07.672Z,4.58
2023-04-21T04:23:35.000Z,4.69
2023-04-21T04:26:04.555Z,4.76
2023-04-21T04:28:32.138Z,4.78
2023-04-21T04:31:00.674Z,4.70
2023-04-21T04:33:27.877Z,4.75
2023-04-21T04:35:55.055Z,4.70
2023-04-21T04:38:23.100Z,4.58
2023-04-21T04:40:53.798Z,4.67
2023-04-21T04:43:21.180Z,4.73
2023-04-21T04:45:48.587Z,4.80
2023-04-21T04:48:16.121Z,4.79
2023-04-21T04:50:43.261Z,4.78
2023-04-21T04:53:10.435Z,4.77
2023-04-21T04:55:38.127Z,4.83
2023-04-21T04:58:05.282Z,4.83
2023-04-21T05:00:32.603Z,4.91
2023-04-21T05:02:59.936Z,5.21
2023-04-21T05:05:27.098Z,5.38
2023-04-21T05:07:54.184Z,5.33
2023-04-21T05:10:21.294Z,5.89
2023-04-21T05:12:48.446Z,6.01
2023-04-21T05:15:15.710Z,5.89
2023-04-21T05:17:42.979Z,5.98
2023-04-21T05:20:10.961Z,6.11
2023-04-21T05:22:38.605Z,6.18
2023-04-21T05:25:06.040Z,6.02
2023-04-21T05:27:34.155Z,6.16
2023-04-21T05:30:01.441Z,6.19
2023-04-21T05:32:29.383Z,6.16
2023-04-21T05:34:56.742Z,6.16
2023-04-21T05:37:23.891Z,6.01
2023-04-21T05:39:51.300Z,5.96
2023-04-21T05:42:18.540Z,6.10
2023-04-21T05:44:45.616Z,6.09
2023-04-21T05:47:12.669Z,6.28
2023-04-21T05:49:39.845Z,6.49
2023-04-21T05:52:09.487Z,6.51
2023-04-21T05:54:36.724Z,6.63
2023-04-21T05:57:03.980Z,6.94
2023-04-21T05:59:31.078Z,7.32
2023-04-21T06:01:58.212Z,8.04
2023-04-21T06:04:25.747Z,8.14
2023-04-21T06:06:53.264Z,9.17
2023-04-21T06:09:20.359Z,9.87
2023-04-21T06:11:47.434Z,9.30
2023-04-21T06:14:14.790Z,9.28
2023-04-21T06:16:41.935Z,9.07
2023-04-21T06:19:09.142Z,8.85
2023-04-21T06:21:36.296Z,10.96
2023-04-21T06:24:03.601Z,11.88
2023-04-21T06:26:30.750Z,11.38
2023-04-21T06:28:57.875Z,10.18
2023-04-21T06:31:25.078Z,9.40
2023-04-21T06:33:52.204Z,9.89
2023-04-21T06:36:19.338Z,9.81
2023-04-21T06:38:46.633Z,9.86
2023-04-21T06:41:13.721Z,9.83
2023-04-21T06:43:41.215Z,10.26
2023-04-21T06:46:08.621Z,9.77
2023-04-21T06:48:35.784Z,10.16
2023-04-21T06:51:02.924Z,10.11
2023-04-21T06:53:30.103Z,9.93
2023-04-21T06:55:57.345Z,10.51
2023-04-21T06:58:24.527Z,10.68
2023-04-21T07:00:51.667Z,10.61
2023-04-21T07:03:18.989Z,11.44
2023-04-21T07:05:47.227Z,10.93
2023-04-21T07:08:14.484Z,11.38
2023-04-21T07:10:41.578Z,11.20
2023-04-21T07:13:10.138Z,11.64
2023-04-21T07:15:37.524Z,11.08
2023-04-21T07:18:04.657Z,11.20
2023-04-21T07:20:31.810Z,10.75
2023-04-21T07:22:58.910Z,10.90
2023-04-21T07:25:26.227Z,10.98
2023-04-21T07:27:53.501Z,11.01
2023-04-21T07:30:20.768Z,11.96
2023-04-21T07:32:47.977Z,12.11
2023-04-21T07:35:15.627Z,11.13
2023-04-21T07:37:42.790Z,11.52
2023-04-21T07:40:10.175Z,11.81
2023-04-21T07:42:37.235Z,12.64
2023-04-21T07:45:04.577Z,12.03
2023-04-21T07:47:32.579Z,12.46
2023-04-21T07:49:59.857Z,12.36
2023-04-21T07:52:26.998Z,12.91
2023-04-21T07:54:54.196Z,12.41
2023-04-21T07:57:21.428Z,12.13
2023-04-21T07:59:48.718Z,12.80
2023-04-21T08:02:16.152Z,12.80
2023-04-21T08:04:43.328Z,13.34
2023-04-21T08:07:11.119Z,12.73
2023-04-21T08:09:38.292Z,12.32
2023-04-21T08:12:05.429Z,12.00
2023-04-21T08:14:32.576Z,12.87
2023-04-21T08:17:00.008Z,13.11
2023-04-21T08:19:27.278Z,12.74
2023-04-21T08:21:54.462Z,12.91
2023-04-21T08:24:21.753Z,13.45
2023-04-21T08:26:49.068Z,13.45
2023-04-21T08:29:16.310Z,13.10
2023-04-21T08:31:43.469Z,13.13
2023-04-21T08:34:10.740Z,13.47
2023-04-21T08:36:37.998Z,13.48
2023-04-21T08:39:05.159Z,13.73
2023-04-21T08:41:32.489Z,13.78
2023-04-21T08:43:59.543Z,13.59
2023-04-21T08:46:27.846Z,14.50
2023-04-21T08:48:55.504Z,13.90
2023-04-21T08:51:23.818Z,13.95
2023-04-21T08:53:51.949Z,13.66
2023-04-21T08:56:19.256Z,14.33
2023-04-21T08:58:46.434Z,14.52
2023-04-21T09:01:13.627Z,13.93
2023-04-21T09:03:40.992Z,14.27
2023-04-21T09:06:09.810Z,13.96
2023-04-21T09:08:38.339Z,14.53
2023-04-21T09:11:05.918Z,14.40
2023-04-21T09:13:37.104Z,15.14
2023-04-21T09:16:08.506Z,14.80
2023-04-21T09:18:37.358Z,15.03
2023-04-21T09:21:12.141Z,14.22
2023-04-21T09:23:39.865Z,14.52
2023-04-21T09:26:07.306Z,14.79
2023-04-21T09:28:34.520Z,14.81
2023-04-21T09:31:01.663Z,14.85
2023-04-21T09:33:39.517Z,14.89
2023-04-21T09:36:21.079Z,15.28
2023-04-21T09:39:09.007Z,15.20
2023-04-21T09:41:41.436Z,14.72
2023-04-21T09:44:08.636Z,15.07
2023-04-21T09:46:36.862Z,15.72
2023-04-21T09:49:04.516Z,15.26
2023-04-21T09:51:56.231Z,15.24
2023-04-21T09:56:53.604Z,15.35
2023-04-21T09:59:24.989Z,15.36
2023-04-21T10:01:53.867Z,15.02
2023-04-21T10:04:22.894Z,15.67
2023-04-21T10:06:51.418Z,14.95
2023-04-21T10:09:20.402Z,15.17
2023-04-21T10:11:47.612Z,15.58
2023-04-21T10:14:14.720Z,16.12
2023-04-21T10:16:42.540Z,15.70
2023-04-21T10:19:25.953Z,15.82
2023-04-21T10:21:57.551Z,15.51
2023-04-21T10:24:28.416Z,15.49
2023-04-21T10:26:59.495Z,15.72
2023-04-21T10:29:40.227Z,15.57
2023-04-21T10:32:31.357Z,15.79
2023-04-21T10:34:58.456Z,15.69
2023-04-21T10:37:25.601Z,15.89
2023-04-21T10:39:54.727Z,15.87
2023-04-21T10:42:24.655Z,15.05
2023-04-21T10:44:54.848Z,15.37
2023-04-21T10:47:38.414Z,15.57
2023-04-21T10:50:12.894Z,15.23
2023-04-21T10:52:43.367Z,16.10
2023-04-21T10:55:12.559Z,15.88
2023-04-21T10:57:42.258Z,15.53
2023-04-21T11:00:10.137Z,15.76
2023-04-21T11:02:40.327Z,15.35
2023-04-21T11:05:09.111Z,15.74
2023-04-21T11:07:36.235Z,15.20
2023-04-21T11:10:04.870Z,15.34
2023-04-21T11:12:33.579Z,15.76
2023-04-21T11:15:03.836Z,15.78
2023-04-21T11:17:31.689Z,15.71
2023-04-21T11:19:59.112Z,15.77
2023-04-21T11:22:26.967Z,16.08
2023-04-21T11:24:55.394Z,15.88
2023-04-21T11:27:26.145Z,16.08
2023-04-21T11:29:53.386Z,16.16
2023-04-21T11:32:20.532Z,16.59
2023-04-21T11:34:47.732Z,16.35
2023-04-21T11:37:16.824Z,16.32
2023-04-21T11:39:44.349Z,16.34
2023-04-21T11:42:14.917Z,16.04
2023-04-21T11:44:42.787Z,16.13
2023-04-21T11:47:17.379Z,16.43
2023-04-21T11:49:45.364Z,16.12
2023-04-21T11:52:19.697Z,16.45
2023-04-21T11:54:46.923Z,16.41
2023-04-21T11:57:18.142Z,16.51
2023-04-21T11:59:45.890Z,15.88
2023-04-21T12:02:20.788Z,16.35
2023-04-21T12:04:57.081Z,16.06
2023-04-21T12:07:24.648Z,16.24
2023-04-21T12:09:52.318Z,15.81
2023-04-21T12:12:19.407Z,16.34
2023-04-21T12:14:46.755Z,16.47
2023-04-21T12:17:13.893Z,16.42
2023-04-21T12:19:41.745Z,16.26
2023-04-21T12:22:09.676Z,16.03
2023-04-21T12:24:37.235Z,16.23
2023-04-21T12:27:04.891Z,16.33
2023-04-21T12:29:32.274Z,16.32
2023-04-21T12:31:59.552Z,16.30
2023-04-21T12:34:26.855Z,16.05
2023-04-21T12:36:53.942Z,15.91
2023-04-21T12:39:22.118Z,16.24
2023-04-21T12:41:49.226Z,16.52
2023-04-21T12:44:16.382Z,16.22
2023-04-21T12:46:43.588Z,16.35
2023-04-21T12:49:11.693Z,16.19
2023-04-21T12:51:38.851Z,16.41
2023-04-21T12:54:06.331Z,16.57
2023-04-21T12:56:33.453Z,16.26
2023-04-21T12:59:00.677Z,15.96
2023-04-21T13:01:27.872Z,16.34
2023-04-21T13:03:55.213Z,16.31
2023-04-21T13:06:22.433Z,16.45
2023-04-21T13:08:49.557Z,16.30
2023-04-21T13:11:16.781Z,16.39
2023-04-21T13:13:43.930Z,16.09
2023-04-21T13:16:11.037Z,16.30
2023-04-21T13:18:39.039Z,16.38
2023-04-21T13:21:06.434Z,16.65
2023-04-21T13:23:33.910Z,16.70
2023-04-21T13:26:01.038Z,16.03
2023-04-21T13:28:28.328Z,16.45
2023-04-21T13:30:55.717Z,16.57
2023-04-21T13:33:22.952Z,16.38
2023-04-21T13:35:50.147Z,16.55
2023-04-21T13:38:17.546Z,16.65
2023-04-21T13:40:45.846Z,16.68
2023-04-21T13:43:12.927Z,16.73
2023-04-21T13:45:40.045Z,16.64
2023-04-21T13:48:07.432Z,16.54
2023-04-21T13:50:34.556Z,16.75
2023-04-21T13:53:01.934Z,16.74
2023-04-21T13:55:29.078Z,16.77
2023-04-21T13:57:56.277Z,16.75
2023-04-21T14:00:23.438Z,16.65
2023-04-21T14:02:50.711Z,16.75
2023-04-21T14:05:18.102Z,16.73
2023-04-21T14:07:45.767Z,16.67
2023-04-21T14:10:12.876Z,16.56
2023-04-21T14:12:40.110Z,16.52
2023-04-21T14:15:07.682Z,16.45
2023-04-21T14:17:34.918Z,16.34
2023-04-21T14:20:03.028Z,16.28
2023-04-21T14:22:31.031Z,16.37
2023-04-21T14:24:58.279Z,16.23
2023-04-21T14:27:25.687Z,16.24
2023-04-21T14:29:52.780Z,16.16
2023-04-21T14:32:20.917Z,16.19
2023-04-21T14:34:48.709Z,16.14
2023-04-21T14:37:15.791Z,16.15
2023-04-21T14:39:42.987Z,16.10
2023-04-21T14:42:10.302Z,16.21
2023-04-21T14:44:37.518Z,16.26
2023-04-21T14:47:09.984Z,16.12
2023-04-21T14:49:38.461Z,16.00
2023-04-21T14:52:06.858Z,16.13
2023-04-21T14:54:33.971Z,16.18
2023-04-21T14:57:17.522Z,16.23
2023-04-21T14:59:48.343Z,16.14
2023-04-21T15:02:15.674Z,16.16
2023-04-21T15:04:42.964Z,16.02
2023-04-21T15:07:10.300Z,16.10
2023-04-21T15:09:38.792Z,16.08
2023-04-21T15:12:06.311Z,16.17
2023-04-21T15:14:33.546Z,16.01
2023-04-21T15:17:00.685Z,15.98
2023-04-21T15:19:27.834Z,15.96
2023-04-21T15:21:54.966Z,16.00
2023-04-21T15:24:22.109Z,15.88
2023-04-21T15:26:49.204Z,15.84
2023-04-21T15:29:16.353Z,15.94
2023-04-21T15:31:43.496Z,15.98
2023-04-21T15:34:10.830Z,15.91
2023-04-21T15:36:37.900Z,15.90
2023-04-21T15:39:05.099Z,15.90
2023-04-21T15:41:32.307Z,15.90
2023-04-21T15:44:00.172Z,15.95
2023-04-21T15:46:27.398Z,15.95
2023-04-21T15:48:54.743Z,15.71
2023-04-21T15:51:21.952Z,15.75
2023-04-21T15:53:49.508Z,15.71
2023-04-21T15:56:16.758Z,15.59
2023-04-21T15:58:44.099Z,15.69
2023-04-21T16:01:11.490Z,15.69
2023-04-21T16:03:40.277Z,15.80
2023-04-21T16:06:08.067Z,15.84
2023-04-21T16:08:35.397Z,15.83
2023-04-21T16:11:02.676Z,15.80
2023-04-21T16:13:29.827Z,15.80
2023-04-21T16:15:57.180Z,15.49
2023-04-21T16:18:24.434Z,15.49
2023-04-21T16:20:52.362Z,15.56
2023-04-21T16:23:19.734Z,15.56
2023-04-21T16:25:47.645Z,15.54
2023-04-21T16:28:14.797Z,15.52
2023-04-21T16:30:43.667Z,15.53
2023-04-21T16:33:11.524Z,15.54
2023-04-21T16:35:39.363Z,15.35
2023-04-21T16:38:06.593Z,15.45
2023-04-21T16:40:33.861Z,15.32
2023-04-21T16:43:01.278Z,15.20
2023-04-21T16:45:29.210Z,15.30
2023-04-21T16:47:56.742Z,15.30
2023-04-21T16:50:23.958Z,15.24
2023-04-21T16:52:51.166Z,15.13
2023-04-21T16:55:18.600Z,15.14
2023-04-21T16:57:45.944Z,15.10
2023-04-21T17:00:13.399Z,15.07
2023-04-21T17:02:40.723Z,15.07
2023-04-21T17:05:08.246Z,15.06
2023-04-21T17:07:35.487Z,15.00
2023-04-21T17:10:02.615Z,14.95
2023-04-21T17:12:29.794Z,14.90
2023-04-21T17:14:57.053Z,14.91
2023-04-21T17:17:24.353Z,14.87
2023-04-21T17:19:52.413Z,14.85
2023-04-21T17:22:19.515Z,14.76
2023-04-21T17:24:53.257Z,14.71
2023-04-21T17:27:21.064Z,14.64
2023-04-21T17:29:48.588Z,14.66
2023-04-21T17:32:15.842Z,14.62
2023-04-21T17:34:43.058Z,14.57
2023-04-21T17:37:10.239Z,14.48
2023-04-21T17:39:37.611Z,14.44
2023-04-21T17:42:05.013Z,14.37
2023-04-21T17:44:32.251Z,14.36
2023-04-21T17:46:59.349Z,14.30
2023-04-21T17:49:26.520Z,14.27
2023-04-21T17:51:53.616Z,14.25
2023-04-21T17:54:20.848Z,14.18
2023-04-21T17:56:47.878Z,14.12
2023-04-21T17:59:14.975Z,14.14
2023-04-21T18:01:42.096Z,14.09
2023-04-21T18:04:09.471Z,14.02
2023-04-21T18:06:36.809Z,13.96
2023-04-21T18:09:05.059Z,13.92
2023-04-21T18:11:32.383Z,13.86
2023-04-21T18:13:59.547Z,13.76
2023-04-21T18:16:26.929Z,13.72
2023-04-21T18:18:54.184Z,13.66
2023-04-21T18:21:21.462Z,13.57
2023-04-21T18:23:51.304Z,13.51
2023-04-21T18:26:18.532Z,13.47
2023-04-21T18:28:48.397Z,13.41
2023-04-21T18:31:19.021Z,13.37
2023-04-21T18:33:51.603Z,13.34
2023-04-21T18:36:18.764Z,13.32
2023-04-21T18:38:47.005Z,13.30
2023-04-21T18:41:14.400Z,13.27
2023-04-21T18:43:41.553Z,13.19
2023-04-21T18:46:08.668Z,13.14
2023-04-21T18:48:35.823Z,13.09
2023-04-21T18:51:03.002Z,13.05
2023-04-21T18:53:30.133Z,13.02
2023-04-21T18:55:57.282Z,12.94
2023-04-21T18:58:24.367Z,12.90
2023-04-21T19:00:52.335Z,12.84
2023-04-21T19:03:19.700Z,12.68
2023-04-21T19:05:50.209Z,12.66
2023-04-21T19:08:23.832Z,12.65
2023-04-21T19:11:01.247Z,12.60
2023-04-21T19:13:28.464Z,12.55
2023-04-21T19:15:55.693Z,12.51
2023-04-21T19:18:22.775Z,12.46
2023-04-21T19:20:49.901Z,12.44
2023-04-21T19:23:17.132Z,12.38
2023-04-21T19:25:44.434Z,12.30
2023-04-21T19:28:11.614Z,12.26
2023-04-21T19:30:38.693Z,12.19
2023-04-21T19:33:05.850Z,12.09
2023-04-21T19:35:33.031Z,12.02
2023-04-21T19:38:00.191Z,11.91
2023-04-21T19:40:27.403Z,11.84
2023-04-21T19:42:54.555Z,11.92
2023-04-21T19:45:22.012Z,11.89
2023-04-21T19:47:49.179Z,11.85
2023-04-21T19:50:16.393Z,11.83
2023-04-21T19:52:43.509Z,11.80
2023-04-21T19:55:10.600Z,11.77
2023-04-21T19:57:37.830Z,11.74
2023-04-21T20:00:09.172Z,11.71
2023-04-21T20:02:39.637Z,11.69
2023-04-21T20:05:10.074Z,11.62
2023-04-21T20:07:37.796Z,11.53
2023-04-21T20:10:05.940Z,11.47
2023-04-21T20:12:33.506Z,11.44
2023-04-21T20:15:01.328Z,11.43
2023-04-21T20:17:29.195Z,11.40
2023-04-21T20:19:56.439Z,11.38
2023-04-21T20:22:23.575Z,11.39
2023-04-21T20:24:52.103Z,11.34
2023-04-21T20:27:19.401Z,11.33
2023-04-21T20:29:46.923Z,11.30
2023-04-21T20:32:14.025Z,11.28
2023-04-21T20:34:41.542Z,11.27
2023-04-21T20:37:10.734Z,11.23
2023-04-21T20:39:40.738Z,11.18
2023-04-21T20:42:13.170Z,11.18
2023-04-21T20:44:42.730Z,11.14
2023-04-21T20:47:10.333Z,11.13
2023-04-21T20:49:38.659Z,11.09
2023-04-21T20:52:06.459Z,11.02
2023-04-21T20:54:34.690Z,10.92
2023-04-21T20:57:02.379Z,10.90
2023-04-21T20:59:29.645Z,10.88
2023-04-21T21:01:56.830Z,10.83
2023-04-21T21:04:24.112Z,10.81
2023-04-21T21:06:51.436Z,10.77
2023-04-21T21:09:19.048Z,10.77
2023-04-21T21:11:46.512Z,10.75
2023-04-21T21:14:13.755Z,10.73
2023-04-21T21:16:41.033Z,10.71
2023-04-21T21:19:08.375Z,10.71
2023-04-21T21:21:35.450Z,10.68
2023-04-21T21:24:02.541Z,10.65
2023-04-21T21:26:29.657Z,10.61
2023-04-21T21:28:56.990Z,10.57
2023-04-21T21:31:25.601Z,10.53
2023-04-21T21:33:52.812Z,10.54
2023-04-21T21:36:20.044Z,10.54
2023-04-21T21:38:47.101Z,10.53
2023-04-21T21:41:14.742Z,10.59
2023-04-21T21:43:41.879Z,10.56
2023-04-21T21:46:09.117Z,10.56
2023-04-21T21:48:36.284Z,10.60
2023-04-21T21:51:05.316Z,10.59
2023-04-21T21:53:32.817Z,10.54
2023-04-21T21:55:59.993Z,10.50
2023-04-21T21:58:27.156Z,10.48
2023-04-21T22:00:54.752Z,10.45
2023-04-21T22:03:21.993Z,10.40
2023-04-21T22:05:49.278Z,10.39
2023-04-21T22:08:16.566Z,10.37
2023-04-21T22:10:43.743Z,10.31
2023-04-21T22:13:11.238Z,10.31
2023-04-21T22:15:38.772Z,10.26
2023-04-21T22:18:07.144Z,10.20
2023-04-21T22:20:34.491Z,10.19
2023-04-21T22:23:01.541Z,10.20
2023-04-21T22:25:28.637Z,10.19
2023-04-21T22:27:56.834Z,10.14
2023-04-21T22:30:24.479Z,10.13
2023-04-21T22:32:51.822Z,10.06
2023-04-21T22:35:19.020Z,10.07
2023-04-21T22:37:46.200Z,10.06
2023-04-21T22:40:13.443Z,10.04
2023-04-21T22:42:40.785Z,10.02
2023-04-21T22:45:08.243Z,10.03
2023-04-21T22:47:35.690Z,10.03
2023-04-21T22:50:04.370Z,10.00
2023-04-21T22:52:31.689Z,10.01
2023-04-21T22:54:58.772Z,9.99
2023-04-21T22:57:25.947Z,9.95
2023-04-21T22:59:53.035Z,9.94
2023-04-21T23:02:20.319Z,9.91
2023-04-21T23:04:47.524Z,9.91
2023-04-21T23:07:14.618Z,9.85
2023-04-21T23:09:41.764Z,9.94
2023-04-21T23:12:08.918Z,9.90
2023-04-21T23:14:35.981Z,9.90
2023-04-21T23:17:03.188Z,9.88
2023-04-21T23:19:30.316Z,9.84
2023-04-21T23:21:57.623Z,9.81
2023-04-21T23:24:24.752Z,9.83
2023-04-21T23:26:51.800Z,9.82
2023-04-21T23:29:18.861Z,9.77
2023-04-21T23:31:46.091Z,9.76
2023-04-21T23:34:13.441Z,9.71
2023-04-21T23:36:40.712Z,9.72
2023-04-21T23:39:07.792Z,9.74
2023-04-21T23:41:34.952Z,9.72
2023-04-21T23:44:02.042Z,9.74
2023-04-21T23:46:29.161Z,9.71
2023-04-21T23:48:56.368Z,9.68
2023-04-21T23:51:23.522Z,9.68
2023-04-21T23:53:50.908Z,9.67
2023-04-21T23:56:18.439Z,9.64
2023-04-21T23:58:45.976Z,9.62
